sensor_id;sensor_type;location;lat;lon;timestamp;P1;durP1;ratioP1;P2;durP2;ratioP2
12141;SDS011;6134;59.284;18.022;2022-12-29T00:01:11;9.75;;;4.28;;
12141;SDS011;6134;59.284;18.022;2022-12-29T00:03:40;9.70;;;4.50;;
12141;SDS011;6134;59.284;18.022;2022-12-29T00:06:09;9.15;;;3.78;;
12141;SDS011;6134;59.284;18.022;2022-12-29T00:08:37;6.32;;;4.05;;
12141;SDS011;6134;59.284;18.022;2022-12-29T00:11:10;17.05;;;4.47;;
12141;SDS011;6134;59.284;18.022;2022-12-29T00:13:40;9.73;;;4.00;;
12141;SDS011;6134;59.284;18.022;2022-12-29T00:16:27;10.55;;;4.55;;
12141;SDS011;6134;59.284;18.022;2022-12-29T00:18:56;13.85;;;4.30;;
12141;SDS011;6134;59.284;18.022;2022-12-29T00:21:25;10.65;;;4.20;;
12141;SDS011;6134;59.284;18.022;2022-12-29T00:24:12;8.63;;;4.15;;
12141;SDS011;6134;59.284;18.022;2022-12-29T00:27:07;12.95;;;4.00;;
12141;SDS011;6134;59.284;18.022;2022-12-29T00:29:56;11.80;;;3.65;;
12141;SDS011;6134;59.284;18.022;2022-12-29T00:32:43;5.90;;;3.85;;
12141;SDS011;6134;59.284;18.022;2022-12-29T00:35:29;9.75;;;4.43;;
12141;SDS011;6134;59.284;18.022;2022-12-29T00:38:02;9.20;;;3.95;;
12141;SDS011;6134;59.284;18.022;2022-12-29T00:40:49;7.90;;;3.53;;
12141;SDS011;6134;59.284;18.022;2022-12-29T00:43:35;11.65;;;3.85;;
12141;SDS011;6134;59.284;18.022;2022-12-29T00:46:23;6.35;;;3.85;;
12141;SDS011;6134;59.284;18.022;2022-12-29T00:48:52;6.70;;;4.25;;
12141;SDS011;6134;59.284;18.022;2022-12-29T00:51:39;4.38;;;3.05;;
12141;SDS011;6134;59.284;18.022;2022-12-29T00:54:08;4.82;;;3.30;;
12141;SDS011;6134;59.284;18.022;2022-12-29T00:56:36;5.47;;;3.50;;
12141;SDS011;6134;59.284;18.022;2022-12-29T00:59:06;4.68;;;3.50;;
12141;SDS011;6134;59.284;18.022;2022-12-29T01:01:37;5.72;;;3.55;;
12141;SDS011;6134;59.284;18.022;2022-12-29T01:04:06;5.63;;;2.72;;
12141;SDS011;6134;59.284;18.022;2022-12-29T01:06:35;5.65;;;3.47;;
12141;SDS011;6134;59.284;18.022;2022-12-29T01:09:04;5.13;;;3.40;;
12141;SDS011;6134;59.284;18.022;2022-12-29T01:11:51;4.68;;;3.33;;
12141;SDS011;6134;59.284;18.022;2022-12-29T01:14:20;6.50;;;3.47;;
12141;SDS011;6134;59.284;18.022;2022-12-29T01:16:50;6.35;;;4.18;;
12141;SDS011;6134;59.284;18.022;2022-12-29T01:19:19;6.80;;;3.88;;
12141;SDS011;6134;59.284;18.022;2022-12-29T01:21:48;6.05;;;3.75;;
12141;SDS011;6134;59.284;18.022;2022-12-29T01:24:18;5.35;;;4.03;;
12141;SDS011;6134;59.284;18.022;2022-12-29T01:26:47;5.47;;;3.95;;
12141;SDS011;6134;59.284;18.022;2022-12-29T01:29:16;6.88;;;4.20;;
12141;SDS011;6134;59.284;18.022;2022-12-29T01:31:45;7.03;;;4.30;;
12141;SDS011;6134;59.284;18.022;2022-12-29T01:34:17;6.40;;;4.15;;
12141;SDS011;6134;59.284;18.022;2022-12-29T01:36:46;6.15;;;4.20;;
12141;SDS011;6134;59.284;18.022;2022-12-29T01:39:15;5.43;;;3.90;;
12141;SDS011;6134;59.284;18.022;2022-12-29T01:41:43;5.20;;;3.30;;
12141;SDS011;6134;59.284;18.022;2022-12-29T01:46:59;4.68;;;3.50;;
12141;SDS011;6134;59.284;18.022;2022-12-29T01:49:30;5.53;;;3.30;;
12141;SDS011;6134;59.284;18.022;2022-12-29T01:51:59;4.20;;;2.80;;
12141;SDS011;6134;59.284;18.022;2022-12-29T01:54:30;3.42;;;2.67;;
12141;SDS011;6134;59.284;18.022;2022-12-29T01:57:01;4.75;;;2.45;;
12141;SDS011;6134;59.284;18.022;2022-12-29T01:59:32;3.28;;;2.53;;
12141;SDS011;6134;59.284;18.022;2022-12-29T02:02:01;4.70;;;2.88;;
12141;SDS011;6134;59.284;18.022;2022-12-29T02:04:31;4.80;;;2.78;;
12141;SDS011;6134;59.284;18.022;2022-12-29T02:07:01;4.35;;;2.78;;
12141;SDS011;6134;59.284;18.022;2022-12-29T02:09:33;4.65;;;3.42;;
12141;SDS011;6134;59.284;18.022;2022-12-29T02:12:02;5.57;;;2.83;;
12141;SDS011;6134;59.284;18.022;2022-12-29T02:14:31;4.82;;;2.83;;
12141;SDS011;6134;59.284;18.022;2022-12-29T02:17:01;3.47;;;2.63;;
12141;SDS011;6134;59.284;18.022;2022-12-29T02:22:23;4.20;;;2.50;;
12141;SDS011;6134;59.284;18.022;2022-12-29T02:27:51;3.75;;;2.40;;
12141;SDS011;6134;59.284;18.022;2022-12-29T02:30:37;3.45;;;2.67;;
12141;SDS011;6134;59.284;18.022;2022-12-29T02:33:08;2.92;;;2.50;;
12141;SDS011;6134;59.284;18.022;2022-12-29T02:35:45;2.65;;;2.28;;
12141;SDS011;6134;59.284;18.022;2022-12-29T02:38:18;3.35;;;2.42;;
12141;SDS011;6134;59.284;18.022;2022-12-29T02:40:51;4.05;;;2.50;;
12141;SDS011;6134;59.284;18.022;2022-12-29T02:43:22;3.58;;;2.67;;
12141;SDS011;6134;59.284;18.022;2022-12-29T02:45:55;2.88;;;2.58;;
12141;SDS011;6134;59.284;18.022;2022-12-29T02:48:27;4.90;;;3.90;;
12141;SDS011;6134;59.284;18.022;2022-12-29T02:50:59;4.15;;;3.13;;
12141;SDS011;6134;59.284;18.022;2022-12-29T02:53:29;3.25;;;2.53;;
12141;SDS011;6134;59.284;18.022;2022-12-29T02:56:12;3.95;;;2.60;;
12141;SDS011;6134;59.284;18.022;2022-12-29T02:58:40;3.70;;;2.80;;
12141;SDS011;6134;59.284;18.022;2022-12-29T03:04:06;3.35;;;2.72;;
12141;SDS011;6134;59.284;18.022;2022-12-29T03:06:41;3.35;;;2.88;;
12141;SDS011;6134;59.284;18.022;2022-12-29T03:09:20;5.78;;;2.92;;
12141;SDS011;6134;59.284;18.022;2022-12-29T03:11:54;4.95;;;2.80;;
12141;SDS011;6134;59.284;18.022;2022-12-29T03:14:37;3.22;;;2.92;;
12141;SDS011;6134;59.284;18.022;2022-12-29T03:17:26;4.25;;;3.28;;
12141;SDS011;6134;59.284;18.022;2022-12-29T03:19:59;4.75;;;3.58;;
12141;SDS011;6134;59.284;18.022;2022-12-29T03:22:30;6.90;;;4.22;;
12141;SDS011;6134;59.284;18.022;2022-12-29T03:25:06;5.85;;;4.30;;
12141;SDS011;6134;59.284;18.022;2022-12-29T03:27:38;7.70;;;4.20;;
12141;SDS011;6134;59.284;18.022;2022-12-29T03:30:08;8.20;;;4.13;;
12141;SDS011;6134;59.284;18.022;2022-12-29T03:32:38;5.55;;;4.22;;
12141;SDS011;6134;59.284;18.022;2022-12-29T03:35:13;9.77;;;4.32;;
12141;SDS011;6134;59.284;18.022;2022-12-29T03:37:44;4.82;;;4.13;;
12141;SDS011;6134;59.284;18.022;2022-12-29T03:40:13;6.82;;;4.57;;
12141;SDS011;6134;59.284;18.022;2022-12-29T03:42:44;6.78;;;4.20;;
12141;SDS011;6134;59.284;18.022;2022-12-29T03:45:13;6.97;;;4.50;;
12141;SDS011;6134;59.284;18.022;2022-12-29T03:47:43;5.68;;;4.43;;
12141;SDS011;6134;59.284;18.022;2022-12-29T03:50:16;6.93;;;4.32;;
12141;SDS011;6134;59.284;18.022;2022-12-29T03:52:45;7.43;;;4.68;;
12141;SDS011;6134;59.284;18.022;2022-12-29T03:55:14;3.80;;;3.35;;
12141;SDS011;6134;59.284;18.022;2022-12-29T03:57:44;6.13;;;4.03;;
12141;SDS011;6134;59.284;18.022;2022-12-29T04:00:19;5.60;;;3.72;;
12141;SDS011;6134;59.284;18.022;2022-12-29T04:02:49;6.20;;;3.95;;
12141;SDS011;6134;59.284;18.022;2022-12-29T04:05:23;5.03;;;3.65;;
12141;SDS011;6134;59.284;18.022;2022-12-29T04:07:53;7.13;;;3.67;;
12141;SDS011;6134;59.284;18.022;2022-12-29T04:10:22;7.13;;;3.63;;
12141;SDS011;6134;59.284;18.022;2022-12-29T04:12:56;5.25;;;3.58;;
12141;SDS011;6134;59.284;18.022;2022-12-29T04:15:25;4.97;;;3.60;;
12141;SDS011;6134;59.284;18.022;2022-12-29T04:17:53;5.57;;;3.97;;
12141;SDS011;6134;59.284;18.022;2022-12-29T04:20:24;5.57;;;4.05;;
12141;SDS011;6134;59.284;18.022;2022-12-29T04:23:11;4.75;;;3.80;;
12141;SDS011;6134;59.284;18.022;2022-12-29T04:25:40;5.60;;;3.88;;
12141;SDS011;6134;59.284;18.022;2022-12-29T04:28:08;4.70;;;3.90;;
12141;SDS011;6134;59.284;18.022;2022-12-29T04:31:03;5.47;;;3.88;;
12141;SDS011;6134;59.284;18.022;2022-12-29T04:33:35;4.57;;;3.72;;
12141;SDS011;6134;59.284;18.022;2022-12-29T04:36:06;6.05;;;4.20;;
12141;SDS011;6134;59.284;18.022;2022-12-29T04:38:36;5.40;;;4.00;;
12141;SDS011;6134;59.284;18.022;2022-12-29T04:41:05;5.80;;;3.80;;
12141;SDS011;6134;59.284;18.022;2022-12-29T04:43:36;5.13;;;4.03;;
12141;SDS011;6134;59.284;18.022;2022-12-29T04:46:28;6.50;;;3.95;;
12141;SDS011;6134;59.284;18.022;2022-12-29T04:49:27;5.72;;;4.13;;
12141;SDS011;6134;59.284;18.022;2022-12-29T04:52:16;6.78;;;4.18;;
12141;SDS011;6134;59.284;18.022;2022-12-29T04:54:45;6.47;;;4.15;;
12141;SDS011;6134;59.284;18.022;2022-12-29T04:57:18;5.50;;;4.15;;
12141;SDS011;6134;59.284;18.022;2022-12-29T04:59:51;4.85;;;4.03;;
12141;SDS011;6134;59.284;18.022;2022-12-29T05:02:20;7.45;;;4.22;;
12141;SDS011;6134;59.284;18.022;2022-12-29T05:04:50;6.65;;;3.83;;
12141;SDS011;6134;59.284;18.022;2022-12-29T05:07:20;4.13;;;3.72;;
12141;SDS011;6134;59.284;18.022;2022-12-29T05:09:49;5.43;;;3.55;;
12141;SDS011;6134;59.284;18.022;2022-12-29T05:12:18;5.57;;;4.13;;
12141;SDS011;6134;59.284;18.022;2022-12-29T05:14:58;4.68;;;3.70;;
12141;SDS011;6134;59.284;18.022;2022-12-29T05:17:28;6.15;;;4.00;;
12141;SDS011;6134;59.284;18.022;2022-12-29T05:19:57;8.68;;;4.00;;
12141;SDS011;6134;59.284;18.022;2022-12-29T05:22:27;5.35;;;3.97;;
12141;SDS011;6134;59.284;18.022;2022-12-29T05:24:56;7.75;;;3.90;;
12141;SDS011;6134;59.284;18.022;2022-12-29T05:27:25;5.43;;;3.47;;
12141;SDS011;6134;59.284;18.022;2022-12-29T05:30:04;4.93;;;3.47;;
12141;SDS011;6134;59.284;18.022;2022-12-29T05:32:33;5.03;;;3.17;;
12141;SDS011;6134;59.284;18.022;2022-12-29T05:35:02;5.35;;;3.38;;
12141;SDS011;6134;59.284;18.022;2022-12-29T05:37:33;3.92;;;3.17;;
12141;SDS011;6134;59.284;18.022;2022-12-29T05:40:02;5.70;;;3.30;;
12141;SDS011;6134;59.284;18.022;2022-12-29T05:42:31;5.20;;;3.30;;
12141;SDS011;6134;59.284;18.022;2022-12-29T05:45:26;4.68;;;3.28;;
12141;SDS011;6134;59.284;18.022;2022-12-29T05:48:24;4.75;;;3.38;;
12141;SDS011;6134;59.284;18.022;2022-12-29T05:51:13;5.53;;;2.97;;
12141;SDS011;6134;59.284;18.022;2022-12-29T05:53:49;6.03;;;3.17;;
12141;SDS011;6134;59.284;18.022;2022-12-29T05:56:18;5.97;;;3.20;;
12141;SDS011;6134;59.284;18.022;2022-12-29T05:58:53;5.63;;;3.38;;
12141;SDS011;6134;59.284;18.022;2022-12-29T06:01:23;7.00;;;3.88;;
12141;SDS011;6134;59.284;18.022;2022-12-29T06:03:53;6.03;;;3.20;;
12141;SDS011;6134;59.284;18.022;2022-12-29T06:06:22;4.00;;;3.00;;
12141;SDS011;6134;59.284;18.022;2022-12-29T06:08:52;6.85;;;3.38;;
12141;SDS011;6134;59.284;18.022;2022-12-29T06:11:22;6.13;;;3.60;;
12141;SDS011;6134;59.284;18.022;2022-12-29T06:13:54;4.57;;;3.47;;
12141;SDS011;6134;59.284;18.022;2022-12-29T06:16:23;5.32;;;4.18;;
12141;SDS011;6134;59.284;18.022;2022-12-29T06:18:56;8.93;;;4.35;;
12141;SDS011;6134;59.284;18.022;2022-12-29T06:21:24;9.85;;;4.07;;
12141;SDS011;6134;59.284;18.022;2022-12-29T06:23:55;6.70;;;4.40;;
12141;SDS011;6134;59.284;18.022;2022-12-29T06:26:24;8.73;;;3.97;;
12141;SDS011;6134;59.284;18.022;2022-12-29T06:28:52;5.78;;;3.97;;
12141;SDS011;6134;59.284;18.022;2022-12-29T06:31:21;6.93;;;3.85;;
12141;SDS011;6134;59.284;18.022;2022-12-29T06:33:50;10.75;;;4.20;;
12141;SDS011;6134;59.284;18.022;2022-12-29T06:36:19;9.18;;;4.25;;
12141;SDS011;6134;59.284;18.022;2022-12-29T06:38:48;8.27;;;4.03;;
12141;SDS011;6134;59.284;18.022;2022-12-29T06:41:20;6.32;;;3.80;;
12141;SDS011;6134;59.284;18.022;2022-12-29T06:44:20;13.82;;;4.60;;
12141;SDS011;6134;59.284;18.022;2022-12-29T06:46:52;11.93;;;4.05;;
12141;SDS011;6134;59.284;18.022;2022-12-29T06:49:20;10.95;;;4.07;;
12141;SDS011;6134;59.284;18.022;2022-12-29T06:51:49;12.07;;;4.78;;
12141;SDS011;6134;59.284;18.022;2022-12-29T06:54:18;13.70;;;4.68;;
12141;SDS011;6134;59.284;18.022;2022-12-29T06:56:48;8.43;;;4.85;;
12141;SDS011;6134;59.284;18.022;2022-12-29T06:59:16;11.40;;;4.97;;
12141;SDS011;6134;59.284;18.022;2022-12-29T07:01:45;12.82;;;5.18;;
12141;SDS011;6134;59.284;18.022;2022-12-29T07:04:14;8.18;;;4.65;;
12141;SDS011;6134;59.284;18.022;2022-12-29T07:06:42;12.98;;;4.82;;
12141;SDS011;6134;59.284;18.022;2022-12-29T07:09:11;22.67;;;6.45;;
12141;SDS011;6134;59.284;18.022;2022-12-29T07:11:40;17.50;;;5.78;;
12141;SDS011;6134;59.284;18.022;2022-12-29T07:14:11;22.15;;;5.38;;
12141;SDS011;6134;59.284;18.022;2022-12-29T07:16:39;19.48;;;5.25;;
12141;SDS011;6134;59.284;18.022;2022-12-29T07:19:08;24.63;;;5.45;;
12141;SDS011;6134;59.284;18.022;2022-12-29T07:21:37;16.42;;;5.15;;
12141;SDS011;6134;59.284;18.022;2022-12-29T07:24:11;24.25;;;5.20;;
12141;SDS011;6134;59.284;18.022;2022-12-29T07:26:40;11.48;;;5.10;;
12141;SDS011;6134;59.284;18.022;2022-12-29T07:29:10;21.33;;;6.22;;
12141;SDS011;6134;59.284;18.022;2022-12-29T07:31:39;23.58;;;5.38;;
12141;SDS011;6134;59.284;18.022;2022-12-29T07:34:08;11.75;;;4.95;;
12141;SDS011;6134;59.284;18.022;2022-12-29T07:36:36;6.93;;;4.95;;
12141;SDS011;6134;59.284;18.022;2022-12-29T07:39:05;17.42;;;5.28;;
12141;SDS011;6134;59.284;18.022;2022-12-29T07:41:34;37.40;;;5.93;;
12141;SDS011;6134;59.284;18.022;2022-12-29T07:44:02;17.48;;;5.65;;
12141;SDS011;6134;59.284;18.022;2022-12-29T07:46:53;13.85;;;4.55;;
12141;SDS011;6134;59.284;18.022;2022-12-29T07:49:24;25.52;;;5.70;;
12141;SDS011;6134;59.284;18.022;2022-12-29T07:51:52;18.15;;;4.72;;
12141;SDS011;6134;59.284;18.022;2022-12-29T07:54:21;15.65;;;4.47;;
12141;SDS011;6134;59.284;18.022;2022-12-29T07:56:50;9.57;;;5.18;;
12141;SDS011;6134;59.284;18.022;2022-12-29T07:59:18;7.30;;;4.15;;
12141;SDS011;6134;59.284;18.022;2022-12-29T08:01:47;8.48;;;4.10;;
12141;SDS011;6134;59.284;18.022;2022-12-29T08:04:17;8.18;;;4.60;;
12141;SDS011;6134;59.284;18.022;2022-12-29T08:06:46;6.82;;;4.43;;
12141;SDS011;6134;59.284;18.022;2022-12-29T08:09:15;7.47;;;4.50;;
12141;SDS011;6134;59.284;18.022;2022-12-29T08:11:49;9.20;;;4.47;;
12141;SDS011;6134;59.284;18.022;2022-12-29T08:14:18;7.65;;;3.63;;
12141;SDS011;6134;59.284;18.022;2022-12-29T08:16:47;6.47;;;3.47;;
12141;SDS011;6134;59.284;18.022;2022-12-29T08:19:15;7.15;;;3.60;;
12141;SDS011;6134;59.284;18.022;2022-12-29T08:21:45;6.47;;;3.83;;
12141;SDS011;6134;59.284;18.022;2022-12-29T08:24:14;6.72;;;3.38;;
12141;SDS011;6134;59.284;18.022;2022-12-29T08:26:43;3.20;;;2.90;;
12141;SDS011;6134;59.284;18.022;2022-12-29T08:29:12;7.70;;;3.08;;
12141;SDS011;6134;59.284;18.022;2022-12-29T08:31:40;4.78;;;2.88;;
12141;SDS011;6134;59.284;18.022;2022-12-29T08:34:09;4.93;;;3.00;;
12141;SDS011;6134;59.284;18.022;2022-12-29T08:36:38;4.38;;;3.00;;
12141;SDS011;6134;59.284;18.022;2022-12-29T08:39:08;3.58;;;2.83;;
12141;SDS011;6134;59.284;18.022;2022-12-29T08:41:37;6.15;;;3.45;;
12141;SDS011;6134;59.284;18.022;2022-12-29T08:44:05;10.10;;;3.40;;
12141;SDS011;6134;59.284;18.022;2022-12-29T08:46:34;4.75;;;3.20;;
12141;SDS011;6134;59.284;18.022;2022-12-29T08:49:03;6.18;;;3.40;;
12141;SDS011;6134;59.284;18.022;2022-12-29T08:51:31;5.45;;;3.60;;
12141;SDS011;6134;59.284;18.022;2022-12-29T08:54:00;4.90;;;3.60;;
12141;SDS011;6134;59.284;18.022;2022-12-29T08:56:31;5.82;;;3.35;;
12141;SDS011;6134;59.284;18.022;2022-12-29T08:58:59;4.35;;;2.92;;
12141;SDS011;6134;59.284;18.022;2022-12-29T09:01:30;3.72;;;2.70;;
12141;SDS011;6134;59.284;18.022;2022-12-29T09:04:00;2.92;;;2.17;;
12141;SDS011;6134;59.284;18.022;2022-12-29T09:06:42;3.13;;;2.30;;
12141;SDS011;6134;59.284;18.022;2022-12-29T09:09:11;2.22;;;1.98;;
12141;SDS011;6134;59.284;18.022;2022-12-29T09:11:41;1.88;;;1.77;;
12141;SDS011;6134;59.284;18.022;2022-12-29T09:14:10;2.78;;;2.03;;
12141;SDS011;6134;59.284;18.022;2022-12-29T09:16:39;1.63;;;1.42;;
12141;SDS011;6134;59.284;18.022;2022-12-29T09:19:25;2.92;;;1.80;;
12141;SDS011;6134;59.284;18.022;2022-12-29T09:21:54;1.50;;;1.20;;
12141;SDS011;6134;59.284;18.022;2022-12-29T09:24:23;1.50;;;1.40;;
12141;SDS011;6134;59.284;18.022;2022-12-29T09:26:53;1.30;;;1.20;;
12141;SDS011;6134;59.284;18.022;2022-12-29T09:29:21;1.20;;;1.10;;
12141;SDS011;6134;59.284;18.022;2022-12-29T09:31:50;0.90;;;0.90;;
12141;SDS011;6134;59.284;18.022;2022-12-29T09:34:19;1.95;;;1.25;;
12141;SDS011;6134;59.284;18.022;2022-12-29T09:36:48;1.73;;;1.30;;
12141;SDS011;6134;59.284;18.022;2022-12-29T09:39:16;2.58;;;1.52;;
12141;SDS011;6134;59.284;18.022;2022-12-29T09:41:47;3.25;;;1.70;;
12141;SDS011;6134;59.284;18.022;2022-12-29T09:44:20;1.73;;;1.40;;
12141;SDS011;6134;59.284;18.022;2022-12-29T09:46:51;3.58;;;1.88;;
12141;SDS011;6134;59.284;18.022;2022-12-29T09:49:23;2.40;;;2.20;;
12141;SDS011;6134;59.284;18.022;2022-12-29T09:51:55;2.60;;;1.60;;
12141;SDS011;6134;59.284;18.022;2022-12-29T09:57:24;3.72;;;2.00;;
12141;SDS011;6134;59.284;18.022;2022-12-29T09:59:55;3.85;;;2.30;;
12141;SDS011;6134;59.284;18.022;2022-12-29T10:02:29;2.90;;;2.58;;
12141;SDS011;6134;59.284;18.022;2022-12-29T10:04:59;5.20;;;3.08;;
12141;SDS011;6134;59.284;18.022;2022-12-29T10:07:31;5.53;;;2.92;;
12141;SDS011;6134;59.284;18.022;2022-12-29T10:10:03;3.80;;;2.53;;
12141;SDS011;6134;59.284;18.022;2022-12-29T10:12:43;3.17;;;2.33;;
12141;SDS011;6134;59.284;18.022;2022-12-29T10:15:23;4.45;;;2.75;;
12141;SDS011;6134;59.284;18.022;2022-12-29T10:17:56;3.08;;;2.65;;
12141;SDS011;6134;59.284;18.022;2022-12-29T10:20:33;4.38;;;2.22;;
12141;SDS011;6134;59.284;18.022;2022-12-29T10:23:10;6.00;;;2.47;;
12141;SDS011;6134;59.284;18.022;2022-12-29T10:25:43;3.17;;;2.20;;
12141;SDS011;6134;59.284;18.022;2022-12-29T10:28:15;3.05;;;2.28;;
12141;SDS011;6134;59.284;18.022;2022-12-29T10:30:47;3.10;;;2.10;;
12141;SDS011;6134;59.284;18.022;2022-12-29T10:33:17;2.70;;;2.08;;
12141;SDS011;6134;59.284;18.022;2022-12-29T10:35:47;7.15;;;2.22;;
12141;SDS011;6134;59.284;18.022;2022-12-29T10:38:18;3.33;;;2.13;;
12141;SDS011;6134;59.284;18.022;2022-12-29T10:40:49;3.00;;;1.77;;
12141;SDS011;6134;59.284;18.022;2022-12-29T10:43:22;2.28;;;2.00;;
12141;SDS011;6134;59.284;18.022;2022-12-29T10:45:54;3.25;;;1.80;;
12141;SDS011;6134;59.284;18.022;2022-12-29T10:48:24;2.20;;;1.58;;
12141;SDS011;6134;59.284;18.022;2022-12-29T10:50:58;2.75;;;2.10;;
12141;SDS011;6134;59.284;18.022;2022-12-29T10:53:31;3.63;;;1.95;;
12141;SDS011;6134;59.284;18.022;2022-12-29T10:56:01;2.60;;;1.80;;
12141;SDS011;6134;59.284;18.022;2022-12-29T10:58:33;2.60;;;1.77;;
12141;SDS011;6134;59.284;18.022;2022-12-29T11:01:03;4.05;;;1.65;;
12141;SDS011;6134;59.284;18.022;2022-12-29T11:03:40;2.15;;;1.60;;
12141;SDS011;6134;59.284;18.022;2022-12-29T11:06:14;1.50;;;1.40;;
12141;SDS011;6134;59.284;18.022;2022-12-29T11:08:47;2.33;;;1.60;;
12141;SDS011;6134;59.284;18.022;2022-12-29T11:11:22;1.35;;;1.25;;
12141;SDS011;6134;59.284;18.022;2022-12-29T11:13:56;1.42;;;1.13;;
12141;SDS011;6134;59.284;18.022;2022-12-29T11:16:30;1.10;;;1.00;;
12141;SDS011;6134;59.284;18.022;2022-12-29T11:19:00;2.15;;;1.05;;
12141;SDS011;6134;59.284;18.022;2022-12-29T11:21:33;1.23;;;1.13;;
12141;SDS011;6134;59.284;18.022;2022-12-29T11:24:18;1.27;;;1.00;;
12141;SDS011;6134;59.284;18.022;2022-12-29T11:26:49;1.08;;;0.95;;
12141;SDS011;6134;59.284;18.022;2022-12-29T11:29:23;1.27;;;1.02;;
12141;SDS011;6134;59.284;18.022;2022-12-29T11:31:54;1.33;;;1.10;;
12141;SDS011;6134;59.284;18.022;2022-12-29T11:34:24;1.48;;;1.33;;
12141;SDS011;6134;59.284;18.022;2022-12-29T11:36:54;1.98;;;1.30;;
12141;SDS011;6134;59.284;18.022;2022-12-29T11:39:33;1.63;;;1.38;;
12141;SDS011;6134;59.284;18.022;2022-12-29T11:42:02;2.17;;;1.52;;
12141;SDS011;6134;59.284;18.022;2022-12-29T11:44:34;1.60;;;1.50;;
12141;SDS011;6134;59.284;18.022;2022-12-29T11:47:05;1.75;;;1.45;;
12141;SDS011;6134;59.284;18.022;2022-12-29T11:49:37;1.55;;;1.35;;
12141;SDS011;6134;59.284;18.022;2022-12-29T11:52:06;2.05;;;1.50;;
12141;SDS011;6134;59.284;18.022;2022-12-29T11:54:36;1.80;;;1.70;;
12141;SDS011;6134;59.284;18.022;2022-12-29T11:57:09;1.73;;;1.27;;
12141;SDS011;6134;59.284;18.022;2022-12-29T11:59:42;2.47;;;1.58;;
12141;SDS011;6134;59.284;18.022;2022-12-29T12:05:09;1.92;;;1.52;;
12141;SDS011;6134;59.284;18.022;2022-12-29T12:07:40;3.67;;;1.60;;
12141;SDS011;6134;59.284;18.022;2022-12-29T12:10:16;3.33;;;1.67;;
12141;SDS011;6134;59.284;18.022;2022-12-29T12:12:47;2.78;;;1.88;;
12141;SDS011;6134;59.284;18.022;2022-12-29T12:15:17;2.40;;;1.75;;
12141;SDS011;6134;59.284;18.022;2022-12-29T12:17:55;2.08;;;1.88;;
12141;SDS011;6134;59.284;18.022;2022-12-29T12:20:27;2.45;;;1.98;;
12141;SDS011;6134;59.284;18.022;2022-12-29T12:23:02;2.40;;;2.00;;
12141;SDS011;6134;59.284;18.022;2022-12-29T12:25:37;1.77;;;1.67;;
12141;SDS011;6134;59.284;18.022;2022-12-29T12:28:09;3.10;;;1.90;;
12141;SDS011;6134;59.284;18.022;2022-12-29T12:30:40;2.13;;;1.80;;
12141;SDS011;6134;59.284;18.022;2022-12-29T12:33:13;1.80;;;1.67;;
12141;SDS011;6134;59.284;18.022;2022-12-29T12:35:47;2.10;;;1.90;;
12141;SDS011;6134;59.284;18.022;2022-12-29T12:38:19;2.00;;;1.80;;
12141;SDS011;6134;59.284;18.022;2022-12-29T12:41:04;2.33;;;2.03;;
12141;SDS011;6134;59.284;18.022;2022-12-29T12:43:37;2.25;;;1.80;;
12141;SDS011;6134;59.284;18.022;2022-12-29T12:46:12;1.52;;;1.42;;
12141;SDS011;6134;59.284;18.022;2022-12-29T12:48:47;1.67;;;1.45;;
12141;SDS011;6134;59.284;18.022;2022-12-29T12:51:23;2.03;;;1.83;;
12141;SDS011;6134;59.284;18.022;2022-12-29T12:54:01;1.98;;;1.60;;
12141;SDS011;6134;59.284;18.022;2022-12-29T12:56:37;1.67;;;1.58;;
12141;SDS011;6134;59.284;18.022;2022-12-29T12:59:12;1.65;;;1.55;;
12141;SDS011;6134;59.284;18.022;2022-12-29T13:01:47;1.63;;;1.52;;
12141;SDS011;6134;59.284;18.022;2022-12-29T13:04:26;2.00;;;1.77;;
12141;SDS011;6134;59.284;18.022;2022-12-29T13:07:04;1.60;;;1.50;;
12141;SDS011;6134;59.284;18.022;2022-12-29T13:09:43;1.80;;;1.70;;
12141;SDS011;6134;59.284;18.022;2022-12-29T13:12:19;2.25;;;1.90;;
12141;SDS011;6134;59.284;18.022;2022-12-29T13:14:54;2.92;;;1.65;;
12141;SDS011;6134;59.284;18.022;2022-12-29T13:17:28;1.80;;;1.70;;
12141;SDS011;6134;59.284;18.022;2022-12-29T13:19:59;2.13;;;1.77;;
12141;SDS011;6134;59.284;18.022;2022-12-29T13:22:33;4.10;;;1.80;;
12141;SDS011;6134;59.284;18.022;2022-12-29T13:25:12;1.48;;;1.38;;
12141;SDS011;6134;59.284;18.022;2022-12-29T13:27:44;1.52;;;1.42;;
12141;SDS011;6134;59.284;18.022;2022-12-29T13:30:15;1.40;;;1.30;;
12141;SDS011;6134;59.284;18.022;2022-12-29T13:32:49;7.53;;;5.25;;
12141;SDS011;6134;59.284;18.022;2022-12-29T13:35:23;1.92;;;1.83;;
12141;SDS011;6134;59.284;18.022;2022-12-29T13:37:58;1.58;;;1.48;;
12141;SDS011;6134;59.284;18.022;2022-12-29T13:40:30;1.60;;;1.50;;
12141;SDS011;6134;59.284;18.022;2022-12-29T13:43:01;3.08;;;1.30;;
12141;SDS011;6134;59.284;18.022;2022-12-29T13:45:30;2.30;;;1.60;;
12141;SDS011;6134;59.284;18.022;2022-12-29T13:48:01;1.75;;;1.35;;
12141;SDS011;6134;59.284;18.022;2022-12-29T13:50:33;1.80;;;1.20;;
12141;SDS011;6134;59.284;18.022;2022-12-29T13:53:06;2.28;;;1.15;;
12141;SDS011;6134;59.284;18.022;2022-12-29T13:55:40;1.23;;;1.13;;
12141;SDS011;6134;59.284;18.022;2022-12-29T13:58:13;1.08;;;1.08;;
12141;SDS011;6134;59.284;18.022;2022-12-29T14:00:44;2.08;;;1.48;;
12141;SDS011;6134;59.284;18.022;2022-12-29T14:06:05;1.95;;;1.77;;
12141;SDS011;6134;59.284;18.022;2022-12-29T14:08:40;2.13;;;1.92;;
12141;SDS011;6134;59.284;18.022;2022-12-29T14:11:10;2.15;;;1.65;;
12141;SDS011;6134;59.284;18.022;2022-12-29T14:13:41;1.90;;;1.67;;
12141;SDS011;6134;59.284;18.022;2022-12-29T14:16:21;1.50;;;1.38;;
12141;SDS011;6134;59.284;18.022;2022-12-29T14:18:52;1.40;;;1.30;;
12141;SDS011;6134;59.284;18.022;2022-12-29T14:21:24;1.30;;;1.20;;
12141;SDS011;6134;59.284;18.022;2022-12-29T14:24:25;1.75;;;1.30;;
12141;SDS011;6134;59.284;18.022;2022-12-29T14:26:50;1.70;;;1.60;;
12141;SDS011;6134;59.284;18.022;2022-12-29T14:34:50;2.92;;;1.58;;
12141;SDS011;6134;59.284;18.022;2022-12-29T14:37:23;2.35;;;1.90;;
12141;SDS011;6134;59.284;18.022;2022-12-29T14:40:04;2.20;;;1.80;;
12141;SDS011;6134;59.284;18.022;2022-12-29T14:42:34;2.05;;;1.80;;
12141;SDS011;6134;59.284;18.022;2022-12-29T14:45:05;2.40;;;2.17;;
12141;SDS011;6134;59.284;18.022;2022-12-29T14:47:35;4.18;;;2.80;;
12141;SDS011;6134;59.284;18.022;2022-12-29T14:50:05;3.78;;;2.95;;
12141;SDS011;6134;59.284;18.022;2022-12-29T14:52:41;4.15;;;3.03;;
12141;SDS011;6134;59.284;18.022;2022-12-29T14:55:32;5.30;;;3.10;;
12141;SDS011;6134;59.284;18.022;2022-12-29T14:58:05;4.55;;;3.15;;
12141;SDS011;6134;59.284;18.022;2022-12-29T15:00:39;5.60;;;3.60;;
12141;SDS011;6134;59.284;18.022;2022-12-29T15:03:12;5.13;;;3.53;;
12141;SDS011;6134;59.284;18.022;2022-12-29T15:05:43;4.50;;;3.58;;
12141;SDS011;6134;59.284;18.022;2022-12-29T15:08:13;8.35;;;3.67;;
12141;SDS011;6134;59.284;18.022;2022-12-29T15:10:47;4.93;;;3.40;;
12141;SDS011;6134;59.284;18.022;2022-12-29T15:13:18;5.45;;;3.70;;
12141;SDS011;6134;59.284;18.022;2022-12-29T15:15:49;3.78;;;3.25;;
12141;SDS011;6134;59.284;18.022;2022-12-29T15:18:25;7.35;;;4.00;;
12141;SDS011;6134;59.284;18.022;2022-12-29T15:20:55;4.00;;;3.15;;
12141;SDS011;6134;59.284;18.022;2022-12-29T15:23:25;3.45;;;3.08;;
12141;SDS011;6134;59.284;18.022;2022-12-29T15:25:56;4.88;;;3.50;;
12141;SDS011;6134;59.284;18.022;2022-12-29T15:28:25;6.28;;;2.85;;
12141;SDS011;6134;59.284;18.022;2022-12-29T15:30:54;5.40;;;2.90;;
12141;SDS011;6134;59.284;18.022;2022-12-29T15:33:24;2.47;;;2.28;;
12141;SDS011;6134;59.284;18.022;2022-12-29T15:35:55;3.15;;;2.55;;
12141;SDS011;6134;59.284;18.022;2022-12-29T15:38:25;2.58;;;2.38;;
12141;SDS011;6134;59.284;18.022;2022-12-29T15:41:03;2.95;;;2.28;;
12141;SDS011;6134;59.284;18.022;2022-12-29T15:43:47;2.50;;;2.30;;